Time;durP1;ratioP1;P1;durP2;ratioP2;P2;SDS_P1;SDS_P2;PMS_P1;PMS_P2;Temp;Humidity;BMP_temperature;BMP_pressure;BME280_temperature;BME280_humidity;BME280_pressure;Samples;Min_cycle;Max_cycle;Signal;HPM_P1;HPM_P2
2023/06/12 00:06:43;;;;;;;5.15;2.80;;;23.50;1.00;;;;;;20683844;28;20034;-43
2023/06/12 00:17:05;;;;;;;5.57;3.10;;;23.30;1.00;;;;;;20685915;28;20037;-42
2023/06/12 00:27:26;;;;;;;5.65;3.22;;;23.10;1.00;;;;;;20684048;28;20052;-42
2023/06/12 00:37:49;;;;;;;4.90;3.00;;;23.00;1.00;;;;;;20676027;28;20066;-42
2023/06/12 00:48:10;;;;;;;3.92;3.00;;;22.80;1.00;;;;;;20684347;28;20045;-43
2023/06/12 00:58:32;;;;;;;6.35;2.80;;;22.80;1.00;;;;;;20682831;28;20034;-42
2023/06/12 01:09:15;;;;;;;4.57;2.88;;;22.70;1.00;;;;;;20672994;28;20049;-43
2023/06/12 01:19:37;;;;;;;4.50;2.95;;;22.50;1.00;;;;;;20673830;28;20456;-42
2023/06/12 01:30:19;;;;;;;4.85;3.17;;;22.40;1.00;;;;;;20677302;28;20049;-43
2023/06/12 01:40:42;;;;;;;4.35;2.92;;;22.30;1.00;;;;;;20671840;28;20050;-42
2023/06/12 01:51:03;;;;;;;4.82;3.00;;;22.20;1.00;;;;;;20679762;28;20049;-42
2023/06/12 02:01:26;;;;;;;4.22;3.00;;;22.00;1.00;;;;;;20674303;28;20065;-42
2023/06/12 02:11:48;;;;;;;4.47;2.53;;;21.80;1.00;;;;;;20668179;28;20065;-43
2023/06/12 02:22:10;;;;;;;4.50;2.95;;;21.50;1.00;;;;;;20662920;28;20038;-42
2023/06/12 02:32:33;;;;;;;4.60;3.03;;;21.30;1.00;;;;;;20662073;28;20072;-42
2023/06/12 02:42:54;;;;;;;5.78;3.13;;;21.20;1.00;;;;;;20649961;28;20057;-42
2023/06/12 02:53:16;;;;;;;6.72;3.10;;;21.10;1.00;;;;;;20656901;28;20045;-42
2023/06/12 03:03:39;;;;;;;7.88;3.63;;;20.90;1.00;;;;;;20661829;28;20038;-42
2023/06/12 03:14:01;;;;;;;5.05;2.90;;;20.70;1.00;;;;;;20675362;28;20044;-42
2023/06/12 03:24:24;;;;;;;5.07;3.20;;;20.50;1.00;;;;;;20672619;28;20556;-42
2023/06/12 03:34:47;;;;;;;4.60;3.08;;;20.30;1.00;;;;;;20670012;28;20061;-43
2023/06/12 03:45:10;;;;;;;5.60;3.33;;;20.10;1.00;;;;;;20668750;28;20223;-43
2023/06/12 03:55:32;;;;;;;5.78;3.13;;;20.00;1.00;;;;;;20667017;28;20042;-43
2023/06/12 04:05:53;;;;;;;5.50;3.10;;;20.00;1.00;;;;;;20663506;28;21197;-43
2023/06/12 04:16:15;;;;;;;6.70;3.20;;;19.90;1.00;;;;;;20661309;28;20576;-43
2023/06/12 04:26:36;;;;;;;4.45;2.95;;;19.90;1.00;;;;;;20655818;28;20057;-43
2023/06/12 04:36:57;;;;;;;4.93;3.13;;;19.80;1.00;;;;;;20663936;28;20049;-43
2023/06/12 04:47:20;;;;;;;4.85;2.92;;;19.80;1.00;;;;;;20679356;28;20038;-43
2023/06/12 04:57:43;;;;;;;6.93;3.53;;;19.90;1.00;;;;;;20677584;28;20073;-42
2023/06/12 05:08:05;;;;;;;9.05;3.10;;;19.80;1.00;;;;;;20677622;28;20038;-42
2023/06/12 05:18:26;;;;;;;4.97;3.42;;;19.70;1.00;;;;;;20671286;28;20524;-43
2023/06/12 05:28:47;;;;;;;5.50;3.80;;;19.90;1.00;;;;;;20672920;28;20041;-42
2023/06/12 05:39:09;;;;;;;4.53;2.90;;;20.30;1.00;;;;;;20672174;28;20124;-42
2023/06/12 05:49:30;;;;;;;9.23;3.17;;;20.50;1.00;;;;;;20676321;28;20046;-42
2023/06/12 05:59:51;;;;;;;4.45;3.00;;;20.90;1.00;;;;;;20675318;28;20141;-42
2023/06/12 06:10:13;;;;;;;8.90;3.28;;;21.30;1.00;;;;;;20672401;28;20050;-42
2023/06/12 06:20:34;;;;;;;5.15;2.92;;;21.80;1.00;;;;;;20663104;28;20421;-42
2023/06/12 06:30:55;;;;;;;6.53;3.55;;;22.20;1.00;;;;;;20665019;28;20064;-42
2023/06/12 06:41:17;;;;;;;6.32;3.42;;;22.60;1.00;;;;;;20669878;28;20045;-43
2023/06/12 06:51:39;;;;;;;4.32;3.10;;;23.00;1.00;;;;;;20651989;28;20034;-42
2023/06/12 07:02:00;;;;;;;5.70;3.33;;;23.40;1.00;;;;;;20645273;28;20061;-43
2023/06/12 07:12:21;;;;;;;5.30;3.67;;;23.60;1.00;;;;;;20662405;28;20057;-42
2023/06/12 07:22:42;;;;;;;5.80;3.55;;;23.90;1.00;;;;;;20660399;28;20056;-43
2023/06/12 07:33:04;;;;;;;7.03;3.60;;;24.30;1.00;;;;;;20658069;28;20029;-43
2023/06/12 07:43:25;;;;;;;6.65;3.72;;;24.70;1.00;;;;;;20659182;28;21290;-43
2023/06/12 07:53:47;;;;;;;5.80;3.33;;;25.10;1.00;;;;;;20655991;28;20041;-43
2023/06/12 08:04:12;;;;;;;6.43;3.38;;;25.30;1.00;;;;;;20651978;28;20038;-43
2023/06/12 08:14:33;;;;;;;7.82;4.18;;;25.50;1.00;;;;;;20658482;28;20046;-43
2023/06/12 08:24:54;;;;;;;6.97;3.80;;;25.70;1.00;;;;;;20675378;28;20066;-43
2023/06/12 08:35:16;;;;;;;6.35;3.17;;;26.20;1.00;;;;;;20674514;28;20527;-43
2023/06/12 08:45:45;;;;;;;4.38;3.30;;;26.30;1.00;;;;;;20671195;28;20041;-43
2023/06/12 08:56:09;;;;;;;10.35;3.42;;;26.50;1.00;;;;;;20676642;28;20049;-43
2023/06/12 09:06:37;;;;;;;4.82;2.90;;;27.10;1.00;;;;;;20665168;28;20034;-43
2023/06/12 09:16:59;;;;;;;6.10;3.20;;;27.60;1.00;;;;;;20665741;28;20398;-43
2023/06/12 09:27:21;;;;;;;4.72;3.05;;;27.90;1.00;;;;;;20671127;28;20040;-43
2023/06/12 09:37:43;;;;;;;4.18;3.25;;;28.20;1.00;;;;;;20672780;28;20501;-43
2023/06/12 09:48:08;;;;;;;5.10;3.58;;;28.40;1.00;;;;;;20667481;28;20053;-43
2023/06/12 09:58:32;;;;;;;5.30;3.40;;;28.70;1.00;;;;;;20687980;28;20045;-43
2023/06/12 10:08:55;;;;;;;6.25;2.88;;;28.90;1.00;;;;;;20654085;28;20042;-43
2023/06/12 10:19:16;;;;;;;4.20;3.08;;;29.10;1.00;;;;;;20660853;28;20089;-43
2023/06/12 10:29:38;;;;;;;4.45;3.00;;;29.20;1.00;;;;;;20661523;28;20046;-43
2023/06/12 10:40:05;;;;;;;4.30;3.30;;;29.30;1.00;;;;;;20649722;28;20053;-43
2023/06/12 10:50:27;;;;;;;;;;;29.50;1.00;;;;;;20667074;28;20046;-43
2023/06/12 11:00:51;;;;;;;4.28;3.00;;;29.70;1.00;;;;;;20665888;28;19925;-43
2023/06/12 11:11:13;;;;;;;3.75;2.75;;;30.10;1.00;;;;;;20645267;28;20056;-43
2023/06/12 11:21:39;;;;;;;4.68;3.10;;;30.20;1.00;;;;;;20648857;28;20030;-43
2023/06/12 11:32:02;;;;;;;5.68;3.30;;;30.20;1.00;;;;;;20659259;28;20044;-43
2023/06/12 11:42:23;;;;;;;4.82;2.85;;;30.60;1.00;;;;;;20665184;28;20058;-43
2023/06/12 11:52:45;;;;;;;5.28;3.40;;;30.50;1.00;;;;;;20660039;28;20037;-43
2023/06/12 12:03:13;;;;;;;4.20;3.30;;;30.20;1.00;;;;;;20655207;28;20076;-43
2023/06/12 12:13:51;;;;;;;6.85;4.13;;;30.20;1.00;;;;;;20644794;28;20494;-43
2023/06/12 12:24:13;;;;;;;6.43;3.92;;;30.40;1.00;;;;;;20664035;28;20045;-43
2023/06/12 12:34:34;;;;;;;4.88;3.33;;;30.30;1.00;;;;;;20662912;28;20049;-43
2023/06/12 12:44:55;;;;;;;5.80;3.35;;;30.50;1.00;;;;;;20640670;28;20080;-43
2023/06/12 12:55:17;;;;;;;3.40;2.72;;;30.60;1.00;;;;;;20652418;28;20038;-43
2023/06/12 13:05:38;;;;;;;5.82;3.55;;;31.10;1.00;;;;;;20662513;28;20111;-43
2023/06/12 13:16:01;;;;;;;3.95;3.13;;;31.50;1.00;;;;;;20672813;28;20034;-43
2023/06/12 13:26:23;;;;;;;4.10;3.10;;;31.40;1.00;;;;;;20672021;28;20041;-43
2023/06/12 13:36:45;;;;;;;5.93;3.47;;;31.30;1.00;;;;;;20672675;28;20576;-43
2023/06/12 13:47:07;;;;;;;5.65;3.08;;;31.10;1.00;;;;;;20669965;28;20046;-43
2023/06/12 13:57:30;;;;;;;5.90;3.13;;;30.90;1.00;;;;;;20664857;28;20041;-43
2023/06/12 14:07:51;;;;;;;4.63;2.72;;;30.50;1.00;;;;;;20664433;28;20827;-43
2023/06/12 14:18:12;;;;;;;6.28;3.10;;;30.10;1.00;;;;;;20666292;28;20614;-43
2023/06/12 14:28:34;;;;;;;5.03;3.53;;;29.90;1.00;;;;;;20671845;28;20469;-43
2023/06/12 14:38:55;;;;;;;19.88;5.45;;;29.70;1.00;;;;;;20655998;28;20136;-43
2023/06/12 14:49:16;;;;;;;4.55;3.13;;;29.60;1.00;;;;;;20672160;28;20045;-43
2023/06/12 14:59:38;;;;;;;4.38;3.33;;;29.70;1.00;;;;;;20666345;28;20700;-43
2023/06/12 15:09:59;;;;;;;7.78;3.53;;;29.30;1.00;;;;;;20669667;28;20058;-43
2023/06/12 15:20:21;;;;;;;6.20;3.30;;;28.80;1.00;;;;;;20667077;28;20141;-43
2023/06/12 15:30:42;;;;;;;4.45;2.80;;;28.90;1.00;;;;;;20650688;28;20045;-43
2023/06/12 15:41:06;;;;;;;4.57;3.08;;;28.80;1.00;;;;;;20647910;28;20270;-43
2023/06/12 15:51:28;;;;;;;3.90;2.70;;;28.60;1.00;;;;;;20655403;28;20034;-43
2023/06/12 16:01:52;;;;;;;4.65;2.72;;;28.50;1.00;;;;;;20656364;28;20049;-43
2023/06/12 16:12:14;;;;;;;5.65;2.60;;;28.30;1.00;;;;;;20643589;28;20037;-43
2023/06/12 16:22:35;;;;;;;4.47;2.58;;;28.30;1.00;;;;;;20648420;28;20041;-43
2023/06/12 16:33:00;;;;;;;4.60;2.70;;;28.20;1.00;;;;;;20657240;28;20045;-43
2023/06/12 16:43:22;;;;;;;4.72;2.47;;;28.00;1.00;;;;;;20670659;28;20446;-43
2023/06/12 16:53:43;;;;;;;7.38;3.00;;;27.80;1.00;;;;;;20650289;28;20030;-43
2023/06/12 17:04:05;;;;;;;6.55;2.80;;;27.60;1.00;;;;;;20655311;28;20705;-43
2023/06/12 17:14:28;;;;;;;5.55;2.80;;;27.30;1.00;;;;;;20661909;28;20034;-43
2023/06/12 17:24:49;;;;;;;4.50;2.40;;;27.20;1.00;;;;;;20616367;28;20078;-43
2023/06/12 17:35:11;;;;;;;6.88;2.65;;;27.10;1.00;;;;;;20645954;28;20367;-43
2023/06/12 17:45:32;;;;;;;4.53;2.55;;;26.80;1.00;;;;;;20650168;28;20092;-43
2023/06/12 17:55:54;;;;;;;7.15;2.58;;;26.70;1.00;;;;;;20654932;28;20141;-43
2023/06/12 18:06:15;;;;;;;3.60;2.80;;;26.50;1.00;;;;;;20654813;28;20496;-43
2023/06/12 18:16:37;;;;;;;6.88;3.35;;;26.40;1.00;;;;;;20652743;28;20034;-43
2023/06/12 18:26:58;;;;;;;5.32;2.97;;;26.30;1.00;;;;;;20645112;28;20075;-43
2023/06/12 18:37:19;;;;;;;6.45;3.60;;;26.10;1.00;;;;;;20639852;28;20474;-43
2023/06/12 18:47:41;;;;;;;7.40;3.97;;;25.90;1.00;;;;;;20622077;28;20076;-43
2023/06/12 18:58:02;;;;;;;7.97;3.95;;;25.70;1.00;;;;;;20644236;28;20068;-43
2023/06/12 19:08:23;;;;;;;7.43;3.67;;;25.50;1.00;;;;;;20612072;28;20042;-43
2023/06/12 19:18:45;;;;;;;5.93;3.45;;;25.30;1.00;;;;;;20650494;28;20461;-43
2023/06/12 19:29:06;;;;;;;6.18;4.38;;;25.10;1.00;;;;;;20644353;28;20128;-43
2023/06/12 19:39:29;;;;;;;5.45;4.18;;;24.90;1.00;;;;;;20650678;28;20504;-43
2023/06/12 19:49:52;;;;;;;6.13;3.80;;;24.70;1.00;;;;;;20644784;28;20552;-43
2023/06/12 20:00:15;;;;;;;7.40;4.35;;;24.40;1.00;;;;;;20637936;28;20277;-46
2023/06/12 20:10:36;;;;;;;5.40;4.15;;;24.30;1.00;;;;;;20635068;28;22571;-46
2023/06/12 20:20:58;;;;;;;7.22;4.40;;;24.10;1.00;;;;;;20660456;28;20049;-46
2023/06/12 20:31:19;;;;;;;6.57;4.68;;;23.80;1.00;;;;;;20669392;28;20037;-46
2023/06/12 20:41:40;;;;;;;7.00;4.35;;;23.60;1.00;;;;;;20675012;28;20088;-46
2023/06/12 20:52:02;;;;;;;6.05;4.43;;;23.50;1.00;;;;;;20666481;28;20073;-46
2023/06/12 21:02:24;;;;;;;6.05;4.53;;;23.30;1.00;;;;;;20667392;28;20053;-46
2023/06/12 21:12:45;;;;;;;8.45;4.38;;;23.40;1.00;;;;;;20663214;28;20033;-46
2023/06/12 21:23:06;;;;;;;5.65;4.13;;;23.50;1.00;;;;;;20659474;28;20789;-46
2023/06/12 21:33:28;;;;;;;5.47;4.00;;;23.60;1.00;;;;;;20654761;28;20088;-47
2023/06/12 21:43:49;;;;;;;6.50;3.85;;;23.80;1.00;;;;;;20659790;28;20074;-46
2023/06/12 21:54:11;;;;;;;6.25;3.42;;;23.70;1.00;;;;;;20659932;28;20038;-46
2023/06/12 22:04:32;;;;;;;6.90;4.10;;;23.80;1.00;;;;;;20662959;28;20042;-46
2023/06/12 22:14:53;;;;;;;7.70;3.92;;;23.70;1.00;;;;;;20656205;28;20038;-47
2023/06/12 22:25:15;;;;;;;8.52;3.60;;;23.50;1.00;;;;;;20659617;28;20172;-46
2023/06/12 22:35:37;;;;;;;6.43;3.53;;;23.30;1.00;;;;;;20649051;28;20256;-47
2023/06/12 22:45:58;;;;;;;5.03;2.92;;;23.20;1.00;;;;;;20656264;28;20439;-47
2023/06/12 22:56:19;;;;;;;4.68;3.00;;;22.90;1.00;;;;;;20651579;28;20037;-46
2023/06/12 23:06:41;;;;;;;4.57;2.80;;;22.90;1.00;;;;;;20643070;28;20455;-47
2023/06/12 23:17:02;;;;;;;5.45;3.20;;;22.70;1.00;;;;;;20656648;28;20429;-47
2023/06/12 23:27:24;;;;;;;5.35;2.97;;;22.50;1.00;;;;;;20650503;28;20034;-46
2023/06/12 23:37:46;;;;;;;5.38;2.85;;;22.20;1.00;;;;;;20649314;28;20049;-46
2023/06/12 23:48:07;;;;;;;3.78;2.78;;;21.90;1.00;;;;;;20648460;28;20242;-47
2023/06/12 23:58:28;;;;;;;6.95;3.78;;;21.60;1.00;;;;;;20644916;28;20069;-46
